sensor_id;sensor_type;location;lat;lon;timestamp;pressure;altitude;pressure_sealevel;temperature;humidity
75668;BME280;64266;48.798;44.756;2023-06-22T00:02:24;101461.88;;;17.75;49.53
75668;BME280;64266;48.798;44.756;2023-06-22T00:07:27;101457.19;;;17.65;49.75
75668;BME280;64266;48.798;44.756;2023-06-22T00:12:29;101438.47;;;17.54;49.53
75668;BME280;64266;48.798;44.756;2023-06-22T00:17:32;101463.06;;;17.62;49.52
75668;BME280;64266;48.798;44.756;2023-06-22T00:22:35;101415.84;;;17.28;49.44
75668;BME280;64266;48.798;44.756;2023-06-22T00:27:41;101447.13;;;17.39;49.39
75668;BME280;64266;48.798;44.756;2023-06-22T00:32:45;101461.91;;;17.42;49.41
75668;BME280;64266;48.798;44.756;2023-06-22T00:37:49;101483.13;;;17.43;49.61
75668;BME280;64266;48.798;44.756;2023-06-22T00:42:51;101495.63;;;17.54;49.65
75668;BME280;64266;48.798;44.756;2023-06-22T00:47:57;101499.47;;;17.58;49.27
75668;BME280;64266;48.798;44.756;2023-06-22T00:53:03;101505.16;;;17.62;49.49
75668;BME280;64266;48.798;44.756;2023-06-22T00:58:11;101497.50;;;17.70;48.90
75668;BME280;64266;48.798;44.756;2023-06-22T01:03:16;101464.09;;;17.45;49.13
75668;BME280;64266;48.798;44.756;2023-06-22T01:08:49;101508.72;;;17.67;49.16
75668;BME280;64266;48.798;44.756;2023-06-22T01:29:51;101519.13;;;17.47;49.99
75668;BME280;64266;48.798;44.756;2023-06-22T01:34:56;101514.41;;;17.38;50.57
75668;BME280;64266;48.798;44.756;2023-06-22T01:40:02;101529.19;;;17.40;50.93
75668;BME280;64266;48.798;44.756;2023-06-22T01:45:07;101523.16;;;17.33;51.51
75668;BME280;64266;48.798;44.756;2023-06-22T01:50:12;101517.41;;;17.24;51.78
75668;BME280;64266;48.798;44.756;2023-06-22T01:55:15;101518.28;;;17.30;51.78
75668;BME280;64266;48.798;44.756;2023-06-22T02:00:21;101545.75;;;17.37;51.68
75668;BME280;64266;48.798;44.756;2023-06-22T02:05:37;101542.81;;;17.39;51.46
75668;BME280;64266;48.798;44.756;2023-06-22T02:10:42;101530.81;;;17.24;51.74
75668;BME280;64266;48.798;44.756;2023-06-22T02:15:47;101563.63;;;17.48;51.50
75668;BME280;64266;48.798;44.756;2023-06-22T02:20:50;101556.19;;;17.50;51.33
75668;BME280;64266;48.798;44.756;2023-06-22T02:25:52;101567.75;;;17.67;50.75
75668;BME280;64266;48.798;44.756;2023-06-22T02:30:58;101574.88;;;17.95;50.35
75668;BME280;64266;48.798;44.756;2023-06-22T02:36:02;101586.97;;;18.14;49.94
75668;BME280;64266;48.798;44.756;2023-06-22T02:41:11;101573.81;;;18.34;49.41
75668;BME280;64266;48.798;44.756;2023-06-22T02:46:15;101570.31;;;18.51;48.43
75668;BME280;64266;48.798;44.756;2023-06-22T02:51:18;101549.69;;;18.39;47.42
75668;BME280;64266;48.798;44.756;2023-06-22T02:56:21;101574.53;;;18.68;47.20
75668;BME280;64266;48.798;44.756;2023-06-22T03:01:32;101588.22;;;18.88;46.45
75668;BME280;64266;48.798;44.756;2023-06-22T03:06:54;101615.13;;;19.15;45.63
75668;BME280;64266;48.798;44.756;2023-06-22T03:11:59;101618.59;;;20.33;43.41
75668;BME280;64266;48.798;44.756;2023-06-22T03:17:10;101590.72;;;20.74;42.00
75668;BME280;64266;48.798;44.756;2023-06-22T03:22:14;101605.38;;;22.50;39.52
75668;BME280;64266;48.798;44.756;2023-06-22T03:27:17;101611.38;;;23.84;36.77
75668;BME280;64266;48.798;44.756;2023-06-22T03:32:20;101613.84;;;24.85;34.15
75668;BME280;64266;48.798;44.756;2023-06-22T03:37:23;101633.44;;;25.89;33.02
75668;BME280;64266;48.798;44.756;2023-06-22T03:42:26;101642.81;;;26.70;31.12
75668;BME280;64266;48.798;44.756;2023-06-22T03:47:29;101647.44;;;27.46;30.14
75668;BME280;64266;48.798;44.756;2023-06-22T03:52:33;101640.81;;;28.05;29.30
75668;BME280;64266;48.798;44.756;2023-06-22T03:57:36;101649.88;;;28.62;28.34
75668;BME280;64266;48.798;44.756;2023-06-22T04:02:38;101666.75;;;28.33;28.70
75668;BME280;64266;48.798;44.756;2023-06-22T04:07:42;101672.34;;;27.39;29.56
75668;BME280;64266;48.798;44.756;2023-06-22T04:12:45;101662.84;;;28.17;28.54
75668;BME280;64266;48.798;44.756;2023-06-22T04:17:48;101667.00;;;28.85;27.50
75668;BME280;64266;48.798;44.756;2023-06-22T04:22:53;101658.06;;;29.27;26.87
75668;BME280;64266;48.798;44.756;2023-06-22T04:27:56;101662.09;;;29.64;26.53
75668;BME280;64266;48.798;44.756;2023-06-22T04:32:58;101664.91;;;30.10;26.43
75668;BME280;64266;48.798;44.756;2023-06-22T04:38:02;101658.50;;;30.53;25.30
75668;BME280;64266;48.798;44.756;2023-06-22T04:43:06;101688.56;;;30.99;24.52
75668;BME280;64266;48.798;44.756;2023-06-22T04:48:09;101678.75;;;31.19;24.89
75668;BME280;64266;48.798;44.756;2023-06-22T04:53:12;101687.56;;;31.66;24.17
75668;BME280;64266;48.798;44.756;2023-06-22T04:58:15;101689.75;;;31.73;23.97
75668;BME280;64266;48.798;44.756;2023-06-22T05:03:18;101674.50;;;31.84;23.04
75668;BME280;64266;48.798;44.756;2023-06-22T05:08:22;101693.41;;;32.42;22.15
75668;BME280;64266;48.798;44.756;2023-06-22T05:13:28;101687.03;;;32.74;22.51
75668;BME280;64266;48.798;44.756;2023-06-22T05:18:31;101692.25;;;32.92;21.90
75668;BME280;64266;48.798;44.756;2023-06-22T05:23:35;101678.50;;;32.92;21.98
75668;BME280;64266;48.798;44.756;2023-06-22T05:28:38;101681.72;;;33.06;21.15
75668;BME280;64266;48.798;44.756;2023-06-22T05:33:43;101692.84;;;33.49;20.86
75668;BME280;64266;48.798;44.756;2023-06-22T05:38:47;101699.63;;;33.79;19.17
75668;BME280;64266;48.798;44.756;2023-06-22T05:43:51;101693.19;;;34.03;18.48
75668;BME280;64266;48.798;44.756;2023-06-22T05:48:55;101686.00;;;33.99;18.55
75668;BME280;64266;48.798;44.756;2023-06-22T05:53:58;101685.97;;;34.26;18.14
75668;BME280;64266;48.798;44.756;2023-06-22T05:59:01;101703.34;;;34.30;18.25
75668;BME280;64266;48.798;44.756;2023-06-22T06:04:03;101692.28;;;33.84;18.36
75668;BME280;64266;48.798;44.756;2023-06-22T06:09:07;101710.75;;;33.83;18.44
75668;BME280;64266;48.798;44.756;2023-06-22T06:14:10;101697.16;;;33.35;18.21
75668;BME280;64266;48.798;44.756;2023-06-22T06:19:12;101706.47;;;33.58;17.84
75668;BME280;64266;48.798;44.756;2023-06-22T06:24:41;101704.69;;;33.77;16.33
75668;BME280;64266;48.798;44.756;2023-06-22T06:29:44;101696.56;;;33.69;18.20
75668;BME280;64266;48.798;44.756;2023-06-22T06:34:50;101701.34;;;33.44;18.20
75668;BME280;64266;48.798;44.756;2023-06-22T06:39:53;101710.09;;;33.34;17.90
75668;BME280;64266;48.798;44.756;2023-06-22T06:44:57;101703.19;;;33.40;16.68
75668;BME280;64266;48.798;44.756;2023-06-22T06:50:00;101711.91;;;33.42;17.39
75668;BME280;64266;48.798;44.756;2023-06-22T06:55:05;101687.34;;;32.97;17.48
75668;BME280;64266;48.798;44.756;2023-06-22T07:00:14;101708.84;;;33.32;16.48
75668;BME280;64266;48.798;44.756;2023-06-22T07:05:18;101700.97;;;32.94;16.17
75668;BME280;64266;48.798;44.756;2023-06-22T07:10:22;101709.91;;;33.03;16.59
75668;BME280;64266;48.798;44.756;2023-06-22T07:15:26;101706.38;;;32.78;17.01
75668;BME280;64266;48.798;44.756;2023-06-22T07:20:35;101687.22;;;32.45;15.39
75668;BME280;64266;48.798;44.756;2023-06-22T07:25:38;101703.03;;;32.48;16.77
75668;BME280;64266;48.798;44.756;2023-06-22T07:30:41;101679.09;;;32.49;17.88
75668;BME280;64266;48.798;44.756;2023-06-22T07:35:45;101705.81;;;31.41;18.20
75668;BME280;64266;48.798;44.756;2023-06-22T07:40:48;101718.91;;;31.15;18.38
75668;BME280;64266;48.798;44.756;2023-06-22T07:45:51;101716.41;;;31.01;18.54
75668;BME280;64266;48.798;44.756;2023-06-22T07:50:54;101707.63;;;30.49;19.16
75668;BME280;64266;48.798;44.756;2023-06-22T07:55:58;101704.88;;;30.49;18.58
75668;BME280;64266;48.798;44.756;2023-06-22T08:01:01;101716.78;;;29.90;19.45
75668;BME280;64266;48.798;44.756;2023-06-22T08:06:05;101713.88;;;29.52;19.65
75668;BME280;64266;48.798;44.756;2023-06-22T08:11:10;101727.72;;;28.90;19.59
75668;BME280;64266;48.798;44.756;2023-06-22T08:16:12;101738.28;;;28.52;21.08
75668;BME280;64266;48.798;44.756;2023-06-22T08:21:16;101717.78;;;28.02;21.81
75668;BME280;64266;48.798;44.756;2023-06-22T08:26:19;101726.13;;;27.83;21.05
75668;BME280;64266;48.798;44.756;2023-06-22T08:31:24;101708.13;;;27.60;20.82
75668;BME280;64266;48.798;44.756;2023-06-22T08:36:28;101721.22;;;27.50;22.02
75668;BME280;64266;48.798;44.756;2023-06-22T08:41:40;101720.22;;;27.18;22.38
75668;BME280;64266;48.798;44.756;2023-06-22T08:46:46;101725.41;;;27.06;21.90
75668;BME280;64266;48.798;44.756;2023-06-22T08:51:52;101731.44;;;26.76;22.16
75668;BME280;64266;48.798;44.756;2023-06-22T08:56:59;101735.16;;;26.80;22.34
75668;BME280;64266;48.798;44.756;2023-06-22T09:02:26;101720.53;;;26.76;22.87
75668;BME280;64266;48.798;44.756;2023-06-22T09:07:34;101713.75;;;26.73;21.22
75668;BME280;64266;48.798;44.756;2023-06-22T09:12:39;101725.38;;;26.79;22.18
75668;BME280;64266;48.798;44.756;2023-06-22T09:17:43;101732.03;;;26.86;22.58
75668;BME280;64266;48.798;44.756;2023-06-22T09:22:46;101722.13;;;26.77;20.88
75668;BME280;64266;48.798;44.756;2023-06-22T09:27:49;101711.75;;;26.65;21.55
75668;BME280;64266;48.798;44.756;2023-06-22T09:32:52;101715.19;;;26.71;22.00
75668;BME280;64266;48.798;44.756;2023-06-22T09:37:55;101724.88;;;26.63;21.18
75668;BME280;64266;48.798;44.756;2023-06-22T09:42:58;101700.13;;;26.46;21.19
75668;BME280;64266;48.798;44.756;2023-06-22T09:48:00;101717.94;;;26.06;23.29
75668;BME280;64266;48.798;44.756;2023-06-22T09:53:04;101723.69;;;26.23;22.65
75668;BME280;64266;48.798;44.756;2023-06-22T09:58:06;101735.06;;;26.25;21.92
75668;BME280;64266;48.798;44.756;2023-06-22T10:03:09;101716.28;;;25.92;21.45
75668;BME280;64266;48.798;44.756;2023-06-22T10:08:13;101723.22;;;25.84;22.17
75668;BME280;64266;48.798;44.756;2023-06-22T10:13:16;101724.25;;;25.69;22.47
75668;BME280;64266;48.798;44.756;2023-06-22T10:18:20;101722.72;;;25.21;21.43
75668;BME280;64266;48.798;44.756;2023-06-22T10:23:23;101718.41;;;25.20;22.91
75668;BME280;64266;48.798;44.756;2023-06-22T10:28:26;101725.75;;;25.38;22.52
75668;BME280;64266;48.798;44.756;2023-06-22T10:33:33;101711.59;;;25.22;23.62
75668;BME280;64266;48.798;44.756;2023-06-22T10:38:38;101717.47;;;25.29;23.60
75668;BME280;64266;48.798;44.756;2023-06-22T10:43:41;101689.41;;;25.15;23.54
75668;BME280;64266;48.798;44.756;2023-06-22T10:48:44;101684.25;;;24.95;23.28
75668;BME280;64266;48.798;44.756;2023-06-22T10:53:47;101693.34;;;25.04;23.35
75668;BME280;64266;48.798;44.756;2023-06-22T10:58:50;101704.09;;;25.14;24.40
75668;BME280;64266;48.798;44.756;2023-06-22T11:03:53;101698.16;;;25.12;22.98
75668;BME280;64266;48.798;44.756;2023-06-22T11:08:56;101708.03;;;25.03;22.44
75668;BME280;64266;48.798;44.756;2023-06-22T11:14:19;101705.59;;;25.02;24.30
75668;BME280;64266;48.798;44.756;2023-06-22T11:19:23;101693.00;;;25.11;23.26
75668;BME280;64266;48.798;44.756;2023-06-22T11:24:26;101707.53;;;25.20;23.37
75668;BME280;64266;48.798;44.756;2023-06-22T11:29:30;101709.50;;;25.14;21.45
75668;BME280;64266;48.798;44.756;2023-06-22T11:34:39;101709.59;;;25.09;22.06
75668;BME280;64266;48.798;44.756;2023-06-22T11:39:43;101696.72;;;24.96;22.25
75668;BME280;64266;48.798;44.756;2023-06-22T11:45:00;101661.72;;;24.71;23.36
75668;BME280;64266;48.798;44.756;2023-06-22T11:50:06;101712.81;;;25.11;23.65
75668;BME280;64266;48.798;44.756;2023-06-22T11:55:10;101676.00;;;24.82;22.22
75668;BME280;64266;48.798;44.756;2023-06-22T12:00:13;101697.16;;;24.79;23.11
75668;BME280;64266;48.798;44.756;2023-06-22T12:05:20;101708.22;;;24.88;23.19
75668;BME280;64266;48.798;44.756;2023-06-22T12:10:26;101690.16;;;24.73;22.21
75668;BME280;64266;48.798;44.756;2023-06-22T12:15:31;101711.38;;;24.71;23.45
75668;BME280;64266;48.798;44.756;2023-06-22T12:20:35;101686.13;;;24.71;22.05
75668;BME280;64266;48.798;44.756;2023-06-22T12:25:37;101722.28;;;24.66;22.26
75668;BME280;64266;48.798;44.756;2023-06-22T12:30:41;101698.28;;;24.55;23.41
75668;BME280;64266;48.798;44.756;2023-06-22T12:35:45;101705.59;;;24.78;24.09
75668;BME280;64266;48.798;44.756;2023-06-22T12:40:49;101700.66;;;24.85;22.92
75668;BME280;64266;48.798;44.756;2023-06-22T12:45:54;101699.75;;;24.66;21.97
75668;BME280;64266;48.798;44.756;2023-06-22T12:50:58;101710.63;;;24.66;22.18
75668;BME280;64266;48.798;44.756;2023-06-22T12:56:01;101695.91;;;24.72;23.92
75668;BME280;64266;48.798;44.756;2023-06-22T13:01:05;101698.31;;;24.73;22.34
75668;BME280;64266;48.798;44.756;2023-06-22T13:06:10;101680.44;;;24.72;24.86
75668;BME280;64266;48.798;44.756;2023-06-22T13:11:12;101704.88;;;24.67;21.66
75668;BME280;64266;48.798;44.756;2023-06-22T13:16:15;101667.13;;;24.23;22.03
75668;BME280;64266;48.798;44.756;2023-06-22T13:21:18;101700.34;;;24.34;23.28
75668;BME280;64266;48.798;44.756;2023-06-22T13:26:21;101692.19;;;24.39;24.23
75668;BME280;64266;48.798;44.756;2023-06-22T13:31:25;101675.63;;;24.41;24.65
75668;BME280;64266;48.798;44.756;2023-06-22T13:36:29;101678.56;;;24.44;24.51
75668;BME280;64266;48.798;44.756;2023-06-22T13:41:33;101677.59;;;24.35;23.21
75668;BME280;64266;48.798;44.756;2023-06-22T13:46:36;101629.56;;;24.07;24.15
75668;BME280;64266;48.798;44.756;2023-06-22T13:51:39;101692.59;;;24.51;23.97
75668;BME280;64266;48.798;44.756;2023-06-22T13:56:42;101694.84;;;24.44;23.80
75668;BME280;64266;48.798;44.756;2023-06-22T14:01:45;101676.44;;;24.41;23.44
75668;BME280;64266;48.798;44.756;2023-06-22T14:06:48;101675.16;;;24.34;24.17
75668;BME280;64266;48.798;44.756;2023-06-22T14:11:50;101681.69;;;24.33;22.78
75668;BME280;64266;48.798;44.756;2023-06-22T14:16:53;101693.34;;;24.33;23.31
75668;BME280;64266;48.798;44.756;2023-06-22T14:21:58;101683.72;;;24.17;24.88
75668;BME280;64266;48.798;44.756;2023-06-22T14:27:01;101670.53;;;24.05;23.58
75668;BME280;64266;48.798;44.756;2023-06-22T14:32:07;101693.25;;;24.14;23.17
75668;BME280;64266;48.798;44.756;2023-06-22T14:37:10;101690.06;;;24.02;23.32
75668;BME280;64266;48.798;44.756;2023-06-22T14:42:15;101689.31;;;23.92;23.44
75668;BME280;64266;48.798;44.756;2023-06-22T14:47:18;101699.16;;;23.83;23.24
75668;BME280;64266;48.798;44.756;2023-06-22T14:52:21;101681.69;;;23.65;23.54
75668;BME280;64266;48.798;44.756;2023-06-22T14:57:24;101691.75;;;23.59;23.21
75668;BME280;64266;48.798;44.756;2023-06-22T15:02:27;101662.09;;;23.34;23.41
75668;BME280;64266;48.798;44.756;2023-06-22T15:07:30;101706.44;;;23.48;23.16
75668;BME280;64266;48.798;44.756;2023-06-22T15:12:33;101690.53;;;23.32;23.81
75668;BME280;64266;48.798;44.756;2023-06-22T15:17:37;101694.09;;;23.17;23.92
75668;BME280;64266;48.798;44.756;2023-06-22T15:22:40;101705.75;;;23.17;23.66
75668;BME280;64266;48.798;44.756;2023-06-22T15:27:42;101709.81;;;23.15;24.31
75668;BME280;64266;48.798;44.756;2023-06-22T15:32:45;101711.47;;;23.11;24.25
75668;BME280;64266;48.798;44.756;2023-06-22T15:37:49;101704.75;;;22.98;24.69
75668;BME280;64266;48.798;44.756;2023-06-22T15:42:53;101726.38;;;23.03;24.17
75668;BME280;64266;48.798;44.756;2023-06-22T15:47:57;101731.78;;;23.08;24.31
75668;BME280;64266;48.798;44.756;2023-06-22T15:52:59;101734.47;;;23.08;24.53
75668;BME280;64266;48.798;44.756;2023-06-22T15:58:02;101717.22;;;22.89;24.78
75668;BME280;64266;48.798;44.756;2023-06-22T16:03:05;101740.72;;;23.09;24.71
75668;BME280;64266;48.798;44.756;2023-06-22T16:08:11;101740.19;;;23.02;24.77
75668;BME280;64266;48.798;44.756;2023-06-22T16:13:15;101746.44;;;22.92;24.69
75668;BME280;64266;48.798;44.756;2023-06-22T16:18:18;101741.88;;;22.88;24.70
75668;BME280;64266;48.798;44.756;2023-06-22T16:23:21;101745.38;;;22.88;26.35
75668;BME280;64266;48.798;44.756;2023-06-22T16:28:23;101747.28;;;22.83;25.63
75668;BME280;64266;48.798;44.756;2023-06-22T16:33:26;101754.06;;;22.75;25.69
75668;BME280;64266;48.798;44.756;2023-06-22T16:38:30;101752.44;;;22.54;26.87
75668;BME280;64266;48.798;44.756;2023-06-22T16:43:33;101733.81;;;22.37;27.00
75668;BME280;64266;48.798;44.756;2023-06-22T16:48:37;101754.91;;;22.35;27.41
75668;BME280;64266;48.798;44.756;2023-06-22T16:53:40;101767.88;;;22.33;26.82
75668;BME280;64266;48.798;44.756;2023-06-22T16:58:42;101760.84;;;22.17;28.16
75668;BME280;64266;48.798;44.756;2023-06-22T17:04:11;101766.25;;;22.07;28.83
75668;BME280;64266;48.798;44.756;2023-06-22T17:09:15;101752.13;;;21.80;29.92
75668;BME280;64266;48.798;44.756;2023-06-22T17:14:17;101769.13;;;21.70;31.59
75668;BME280;64266;48.798;44.756;2023-06-22T17:19:21;101766.91;;;21.52;31.42
75668;BME280;64266;48.798;44.756;2023-06-22T17:24:24;101771.22;;;21.48;31.22
75668;BME280;64266;48.798;44.756;2023-06-22T17:29:31;101776.59;;;21.38;31.33
75668;BME280;64266;48.798;44.756;2023-06-22T17:34:39;101787.03;;;21.24;31.80
75668;BME280;64266;48.798;44.756;2023-06-22T17:39:51;101793.75;;;21.17;32.93
75668;BME280;64266;48.798;44.756;2023-06-22T17:45:00;101795.78;;;20.99;33.32
75668;BME280;64266;48.798;44.756;2023-06-22T17:50:06;101804.09;;;20.88;33.50
75668;BME280;64266;48.798;44.756;2023-06-22T17:55:10;101805.56;;;20.69;33.90
75668;BME280;64266;48.798;44.756;2023-06-22T18:00:13;101808.47;;;20.62;34.00
75668;BME280;64266;48.798;44.756;2023-06-22T18:05:18;101811.06;;;20.47;34.47
75668;BME280;64266;48.798;44.756;2023-06-22T18:10:32;101787.88;;;20.19;35.13
75668;BME280;64266;48.798;44.756;2023-06-22T18:15:35;101814.00;;;20.19;36.08
75668;BME280;64266;48.798;44.756;2023-06-22T18:20:39;101817.66;;;20.08;36.32
75668;BME280;64266;48.798;44.756;2023-06-22T18:25:42;101794.75;;;19.78;36.83
75668;BME280;64266;48.798;44.756;2023-06-22T18:30:47;101805.81;;;19.82;36.70
75668;BME280;64266;48.798;44.756;2023-06-22T18:35:52;101785.41;;;19.59;37.29
75668;BME280;64266;48.798;44.756;2023-06-22T18:40:55;101804.22;;;19.59;38.21
75668;BME280;64266;48.798;44.756;2023-06-22T18:46:32;101807.66;;;19.55;38.91
75668;BME280;64266;48.798;44.756;2023-06-22T18:51:55;101801.97;;;19.51;39.50
75668;BME280;64266;48.798;44.756;2023-06-22T18:56:58;101795.03;;;19.38;39.63
75668;BME280;64266;48.798;44.756;2023-06-22T19:02:00;101793.69;;;19.36;39.92
75668;BME280;64266;48.798;44.756;2023-06-22T19:07:04;101773.47;;;19.12;41.00
75668;BME280;64266;48.798;44.756;2023-06-22T19:12:18;101816.13;;;19.25;41.33
75668;BME280;64266;48.798;44.756;2023-06-22T19:17:21;101771.38;;;18.97;41.51
75668;BME280;64266;48.798;44.756;2023-06-22T19:22:46;101812.09;;;19.06;42.25
75668;BME280;64266;48.798;44.756;2023-06-22T19:27:50;101800.88;;;18.92;43.05
75668;BME280;64266;48.798;44.756;2023-06-22T19:32:55;101805.75;;;18.95;43.13
75668;BME280;64266;48.798;44.756;2023-06-22T19:37:58;101802.94;;;18.85;43.70
75668;BME280;64266;48.798;44.756;2023-06-22T19:43:01;101806.69;;;18.84;44.10
75668;BME280;64266;48.798;44.756;2023-06-22T19:48:13;101805.94;;;18.88;44.21
75668;BME280;64266;48.798;44.756;2023-06-22T19:53:16;101799.28;;;18.74;44.48
75668;BME280;64266;48.798;44.756;2023-06-22T19:58:20;101816.78;;;18.77;44.77
75668;BME280;64266;48.798;44.756;2023-06-22T20:03:29;101839.91;;;18.78;44.95
75668;BME280;64266;48.798;44.756;2023-06-22T20:08:35;101842.59;;;18.78;45.00
75668;BME280;64266;48.798;44.756;2023-06-22T20:13:48;101836.91;;;18.74;44.73
75668;BME280;64266;48.798;44.756;2023-06-22T20:19:08;101838.38;;;18.65;44.22
75668;BME280;64266;48.798;44.756;2023-06-22T20:24:14;101840.97;;;18.60;44.78
75668;BME280;64266;48.798;44.756;2023-06-22T20:29:29;101848.44;;;18.58;44.78
75668;BME280;64266;48.798;44.756;2023-06-22T20:34:40;101852.81;;;18.48;44.65
75668;BME280;64266;48.798;44.756;2023-06-22T20:39:48;101812.91;;;18.23;45.47
75668;BME280;64266;48.798;44.756;2023-06-22T20:44:52;101839.47;;;18.36;46.05
75668;BME280;64266;48.798;44.756;2023-06-22T20:49:54;101822.34;;;18.25;46.01
75668;BME280;64266;48.798;44.756;2023-06-22T20:55:01;101792.13;;;18.02;46.63
75668;BME280;64266;48.798;44.756;2023-06-22T21:00:05;101797.38;;;17.97;47.21
75668;BME280;64266;48.798;44.756;2023-06-22T21:05:09;101818.56;;;18.10;47.78
75668;BME280;64266;48.798;44.756;2023-06-22T21:10:13;101832.59;;;18.12;48.18
75668;BME280;64266;48.798;44.756;2023-06-22T21:15:16;101835.84;;;18.14;48.51
75668;BME280;64266;48.798;44.756;2023-06-22T21:20:19;101790.34;;;17.79;48.96
75668;BME280;64266;48.798;44.756;2023-06-22T21:25:22;101827.09;;;18.07;48.23
75668;BME280;64266;48.798;44.756;2023-06-22T21:30:24;101805.91;;;17.94;48.28
75668;BME280;64266;48.798;44.756;2023-06-22T21:35:27;101829.78;;;18.07;48.51
75668;BME280;64266;48.798;44.756;2023-06-22T21:40:31;101814.91;;;17.99;48.47
75668;BME280;64266;48.798;44.756;2023-06-22T21:45:34;101824.56;;;18.00;49.15
75668;BME280;64266;48.798;44.756;2023-06-22T21:50:37;101811.06;;;17.95;48.78
75668;BME280;64266;48.798;44.756;2023-06-22T21:55:40;101828.94;;;17.90;49.15
75668;BME280;64266;48.798;44.756;2023-06-22T22:00:43;101814.06;;;17.70;49.62
75668;BME280;64266;48.798;44.756;2023-06-22T22:05:47;101816.84;;;17.75;49.50
75668;BME280;64266;48.798;44.756;2023-06-22T22:10:49;101811.47;;;17.75;48.40
75668;BME280;64266;48.798;44.756;2023-06-22T22:15:52;101793.56;;;17.64;47.71
75668;BME280;64266;48.798;44.756;2023-06-22T22:20:55;101798.94;;;17.64;47.05
75668;BME280;64266;48.798;44.756;2023-06-22T22:25:59;101814.91;;;17.71;47.13
75668;BME280;64266;48.798;44.756;2023-06-22T22:31:02;101786.69;;;17.57;46.68
75668;BME280;64266;48.798;44.756;2023-06-22T22:36:20;101799.41;;;17.61;46.82
75668;BME280;64266;48.798;44.756;2023-06-22T22:41:23;101802.44;;;17.65;46.80
75668;BME280;64266;48.798;44.756;2023-06-22T22:46:26;101815.84;;;17.65;46.97
75668;BME280;64266;48.798;44.756;2023-06-22T22:51:30;101805.91;;;17.54;47.37
75668;BME280;64266;48.798;44.756;2023-06-22T22:56:33;101812.81;;;17.50;47.76
75668;BME280;64266;48.798;44.756;2023-06-22T23:01:36;101811.91;;;17.44;48.26
75668;BME280;64266;48.798;44.756;2023-06-22T23:06:39;101793.41;;;17.31;48.41
75668;BME280;64266;48.798;44.756;2023-06-22T23:11:42;101791.66;;;17.25;48.48
75668;BME280;64266;48.798;44.756;2023-06-22T23:16:46;101808.66;;;17.30;48.12
75668;BME280;64266;48.798;44.756;2023-06-22T23:21:49;101805.84;;;17.37;46.77
75668;BME280;64266;48.798;44.756;2023-06-22T23:26:51;101800.84;;;17.29;46.83
75668;BME280;64266;48.798;44.756;2023-06-22T23:31:54;101764.41;;;17.16;46.32
75668;BME280;64266;48.798;44.756;2023-06-22T23:37:00;101803.06;;;17.32;45.38
75668;BME280;64266;48.798;44.756;2023-06-22T23:42:02;101813.66;;;17.39;45.19
75668;BME280;64266;48.798;44.756;2023-06-22T23:47:05;101800.53;;;17.25;44.95
75668;BME280;64266;48.798;44.756;2023-06-22T23:52:08;101813.09;;;17.25;45.24
75668;BME280;64266;48.798;44.756;2023-06-22T23:57:10;101801.31;;;17.26;45.11
